Madison, WI

12:07 PM CDT on August 27, 2014 (GMT -0500)
Atmospheric, Oceanic and Space Sciences Building | Change Station
CLOSE
Current Station
Personal Weather Station
Location: Madison, WI
Elevation: 896 ft
Nearby Weather Stations

Elev 896 ft 43.07 °N, 89.41 °W | Updated 2 minutes ago

Mostly Cloudy
Mostly Cloudy
70.1 °F
Feels Like 76 °F
N
4.0
Wind Variable Wind from North

Today
High -- | Low -- °F
--% Chance of Precip.
Yesterday
High -- | Low -- °F
Precip. -- in
6:16 AM 7:40 PM
Waxing Crescent, 4% visible
Pressure 30.18 in
Visibility 10.0 miles
Clouds Few 4000 ft
Mostly Cloudy 25000 ft
Heat Index 76 °F
Dew Point 56 °F
Humidity 61%
Rainfall 0.00 in
Snow Depth Not available.
UV 4 out of 12
Pollen 9.60 out of 12
PM2.5 Good
Flu Activity Not available.
METAR KMSN 271653Z 06004KT 10SM FEW040 BKN250 23/13 A3019 RMK AO2 SLP219 T02330133

More Conditions Fewer Conditions

Pressure 30.18 in
Visibility 10.0 miles
Clouds Few 4000 ft
Mostly Cloudy 25000 ft
Heat Index 76 °F
Dew Point 56 °F
Humidity 61%
Rainfall 0.00 in
Snow Depth Not available.
UV 4 out of 12
Pollen 9.60 out of 12
PM2.5 Good
Flu Activity Not available.
METAR KMSN 271653Z 06004KT 10SM FEW040 BKN250 23/13 A3019 RMK AO2 SLP219 T02330133

More Conditions Fewer Conditions

10-Day Weather Forecast

Almanac

Astronomy

Aug. 27, 2014 Rise Set
Actual Time 6:16 AM CDT 7:40 PM CDT
Civil Twilight 5:46 AM CDT 8:10 PM CDT
Nautical Twilight 5:11 AM CDT 8:45 PM CDT
Astronomical Twilight 4:33 AM CDT 9:23 PM CDT
Moon 8:16 AM CDT 8:28 PM CDT
Length of Visible Light 14h 23m
Length of Day
13h 24m
Tomorrow will be 2m 46s shorter.
Waxing Crescent, 4% of the Moon is Illuminated
Today
Waxing Crescent
Sep 2
First Quarter
Sep 8
Full
Sep 15
Last Quarter
Sep 24
New

Today's Extremes

State Highs State Lows

Community

WunderPhotos

Upload Photos

1,747,727 photos uploaded!

Nearby

Air Quality

  Air Quality AQ Index Pollutant
Yesterday Good
OZONE
Yesterday Good
PM2.5
Current Good
PM2.5
Wednesday Good
OZONE
Wednesday Good
PM2.5
Thursday Good
OZONE
Thursday Good
PM2.5
Friday Good
OZONE
Friday Good
PM2.5
Saturday Good
OZONE
Saturday Good
PM2.5
Sunday Moderate
OZONE
Sunday Moderate
PM2.5
Monday Good
OZONE
Monday Good
PM2.5

Snow Depth

Station Depth Elevation
No new snow has been reported.

Earthquake Activity

City Distance Mag. Time & Date
No recent earthquake activity has been reported nearby.
Minimum magnitude displayed is 2.5.

Coastal Water Temperatures

Place Temperature
No Stations Reporting

Nearby Weather Stations